Pampa, TX

10:10 PM CDT en Octubre 21, 2014 (GMT -0500)
WT_Meso Pampa 2E | Change Station
CLOSE
Current Station
Estación meteorológica personal
Location: Pampa, TX
Altura: 3215 ft
Estaciones meteorológicas cercanas

Alt 3215 ft 35.54 °N, 100.93 °W | Updated 45 minutes ago

Despejado
Despejado
60 ° F
Sensación térmica 60 ° F
N
9
Viento Variable Viento desde SSE
Gusts 11.0 mph

Hoy
Alta -- | Baja -- ° F
--% Posibilidad de precipitaciones
Ayer
Alta -- | Baja -- ° F
Precip. -- pul
7:55 AM 7:00 PM
Creciente menguante, 3% visible
Presión 30.08 pul
Visibilidad 10.0 Millas
Nubes Despejado
Punto de rocío 48 ° F
Humedad 65%
Precipitaciones -999.00 pul
Espesor de la nieve No disponible.
UV 0 de una escala de 12
Polen 5.60 de una escala de 12
Calidad del aire No disponible.
Flu Activity Sporadic
METAR KPPA 220255Z AUTO 18011KT 10SM CLR 18/08 A3008 RMK AO2 6//// T01760081 PNO

More Conditions Fewer Conditions

Presión 30.08 pul
Visibilidad 10.0 Millas
Nubes Despejado
Punto de rocío 48 ° F
Humedad 65%
Precipitaciones -999.00 pul
Espesor de la nieve No disponible.
UV 0 de una escala de 12
Polen 5.60 de una escala de 12
Calidad del aire No disponible.
Flu Activity Sporadic
METAR KPPA 220255Z AUTO 18011KT 10SM CLR 18/08 A3008 RMK AO2 6//// T01760081 PNO

More Conditions Fewer Conditions

10-Day Weather Forecast

Almanac

Astronomía

Oct. 21, 2014 Salida Puesta
Hora real 7:55 AM CDT 7:00 PM CDT
Crepúsculo civil 7:29 AM CDT 7:26 PM CDT
Crepúsculo náutico 6:59 AM CDT 7:56 PM CDT
Crepúsculo astronómico 6:30 AM CDT 8:25 PM CDT
Luna 5:46 AM CDT (10/21) 5:52 PM CDT (10/21)
Horas de luz 11h 57m
Horas de luz
11h 05m
Tomorrow will be 2m 6s shorter.
Creciente menguante, 3% of the Moon is Illuminated
Hoy
Creciente menguante
Oct 23
Nueva
Oct 30
Cuarto creciente
Nov 6
Luna llena
Nov 14
Cuarto menguante

Extremos de hoy

Máximos del estado Bajos del estado

Community

WunderPhotos

Upload Photos

1,763,869 ¡fotos cargadas!

Nearby

Grosos de nieve

Estación Profundido Altura
No tenemos constancia de nieve nueva.

Actividad de terremotos

Ciudad Distance Mag. Tiempo y dato
Mooreland, Oklahoma 126 Millas 2.6 11:34 AM CDT
2014-10-21
Mooreland, Oklahoma 126 Millas 2.7 11:18 AM CDT
2014-10-21
Magnitud mínima muestra es 2,5.

Temperaturas de aguas costeras

Lugar Temperatura
Sin partes meteorológicos de las estaciones

Estaciones meteorológicas cercanas